sensor_id;sensor_type;location;lat;lon;timestamp;temperature;humidity
5086;DHT22;4715;51.660;7.082;2023-06-26T00:01:30;25.30;99.90
5086;DHT22;4715;51.660;7.082;2023-06-26T00:03:52;25.30;99.90
5086;DHT22;4715;51.660;7.082;2023-06-26T00:06:14;25.40;99.90
5086;DHT22;4715;51.660;7.082;2023-06-26T00:08:37;25.40;99.90
5086;DHT22;4715;51.660;7.082;2023-06-26T00:10:59;25.50;99.90
5086;DHT22;4715;51.660;7.082;2023-06-26T00:13:22;25.50;99.90
5086;DHT22;4715;51.660;7.082;2023-06-26T00:15:44;25.60;99.90
5086;DHT22;4715;51.660;7.082;2023-06-26T00:18:06;25.60;99.90
5086;DHT22;4715;51.660;7.082;2023-06-26T00:20:27;25.60;99.70
5086;DHT22;4715;51.660;7.082;2023-06-26T00:22:49;25.60;99.60
5086;DHT22;4715;51.660;7.082;2023-06-26T00:25:12;25.60;99.50
5086;DHT22;4715;51.660;7.082;2023-06-26T00:27:34;25.60;99.30
5086;DHT22;4715;51.660;7.082;2023-06-26T00:29:56;25.60;99.30
5086;DHT22;4715;51.660;7.082;2023-06-26T00:32:18;25.60;99.20
5086;DHT22;4715;51.660;7.082;2023-06-26T00:34:39;25.50;99.10
5086;DHT22;4715;51.660;7.082;2023-06-26T00:37:01;25.60;99.10
5086;DHT22;4715;51.660;7.082;2023-06-26T00:39:23;25.60;99.10
5086;DHT22;4715;51.660;7.082;2023-06-26T00:41:47;25.50;99.00
5086;DHT22;4715;51.660;7.082;2023-06-26T00:44:09;25.50;99.00
5086;DHT22;4715;51.660;7.082;2023-06-26T00:46:31;25.50;99.00
5086;DHT22;4715;51.660;7.082;2023-06-26T00:48:54;25.40;98.90
5086;DHT22;4715;51.660;7.082;2023-06-26T00:51:16;25.40;98.90
5086;DHT22;4715;51.660;7.082;2023-06-26T00:53:38;25.40;99.00
5086;DHT22;4715;51.660;7.082;2023-06-26T00:56:01;25.40;99.00
5086;DHT22;4715;51.660;7.082;2023-06-26T00:58:25;25.40;99.30
5086;DHT22;4715;51.660;7.082;2023-06-26T01:00:47;25.40;99.00
5086;DHT22;4715;51.660;7.082;2023-06-26T01:03:10;25.40;99.00
5086;DHT22;4715;51.660;7.082;2023-06-26T01:05:31;25.40;99.00
5086;DHT22;4715;51.660;7.082;2023-06-26T01:07:54;25.30;98.90
5086;DHT22;4715;51.660;7.082;2023-06-26T01:10:16;25.30;98.90
5086;DHT22;4715;51.660;7.082;2023-06-26T01:12:39;25.30;98.90
5086;DHT22;4715;51.660;7.082;2023-06-26T01:15:03;25.30;99.00
5086;DHT22;4715;51.660;7.082;2023-06-26T01:17:25;25.30;99.00
5086;DHT22;4715;51.660;7.082;2023-06-26T01:19:52;25.30;99.00
5086;DHT22;4715;51.660;7.082;2023-06-26T01:22:19;25.30;99.00
5086;DHT22;4715;51.660;7.082;2023-06-26T01:24:52;25.20;99.00
5086;DHT22;4715;51.660;7.082;2023-06-26T01:27:18;25.20;99.00
5086;DHT22;4715;51.660;7.082;2023-06-26T01:29:41;25.20;99.10
5086;DHT22;4715;51.660;7.082;2023-06-26T01:32:05;25.20;99.10
5086;DHT22;4715;51.660;7.082;2023-06-26T01:34:27;25.20;99.10
5086;DHT22;4715;51.660;7.082;2023-06-26T01:36:49;25.20;99.10
5086;DHT22;4715;51.660;7.082;2023-06-26T01:39:12;25.20;99.10
5086;DHT22;4715;51.660;7.082;2023-06-26T01:41:33;25.10;99.10
5086;DHT22;4715;51.660;7.082;2023-06-26T01:44:17;25.10;99.10
5086;DHT22;4715;51.660;7.082;2023-06-26T01:46:48;25.20;99.10
5086;DHT22;4715;51.660;7.082;2023-06-26T01:49:19;25.10;99.10
5086;DHT22;4715;51.660;7.082;2023-06-26T01:51:51;25.10;99.20
5086;DHT22;4715;51.660;7.082;2023-06-26T01:54:18;25.00;99.20
5086;DHT22;4715;51.660;7.082;2023-06-26T01:56:42;25.00;99.20
5086;DHT22;4715;51.660;7.082;2023-06-26T01:59:07;25.00;99.30
5086;DHT22;4715;51.660;7.082;2023-06-26T02:01:31;25.00;99.40
5086;DHT22;4715;51.660;7.082;2023-06-26T02:03:54;25.00;99.40
5086;DHT22;4715;51.660;7.082;2023-06-26T02:06:15;25.00;99.40
5086;DHT22;4715;51.660;7.082;2023-06-26T02:08:37;25.00;99.40
5086;DHT22;4715;51.660;7.082;2023-06-26T02:10:59;24.90;99.50
5086;DHT22;4715;51.660;7.082;2023-06-26T02:13:21;24.90;99.50
5086;DHT22;4715;51.660;7.082;2023-06-26T02:15:43;24.80;99.60
5086;DHT22;4715;51.660;7.082;2023-06-26T02:18:06;24.80;99.60
5086;DHT22;4715;51.660;7.082;2023-06-26T02:20:28;24.80;99.70
5086;DHT22;4715;51.660;7.082;2023-06-26T02:22:49;24.80;99.80
5086;DHT22;4715;51.660;7.082;2023-06-26T02:25:11;24.70;99.80
5086;DHT22;4715;51.660;7.082;2023-06-26T02:27:33;24.70;99.90
5086;DHT22;4715;51.660;7.082;2023-06-26T02:29:55;24.70;99.90
5086;DHT22;4715;51.660;7.082;2023-06-26T02:32:17;24.70;99.90
5086;DHT22;4715;51.660;7.082;2023-06-26T02:34:40;24.70;99.90
5086;DHT22;4715;51.660;7.082;2023-06-26T02:37:02;24.70;99.90
5086;DHT22;4715;51.660;7.082;2023-06-26T02:39:24;24.60;99.90
5086;DHT22;4715;51.660;7.082;2023-06-26T02:41:46;24.60;99.90
5086;DHT22;4715;51.660;7.082;2023-06-26T02:44:07;24.50;99.90
5086;DHT22;4715;51.660;7.082;2023-06-26T02:46:29;24.40;99.90
5086;DHT22;4715;51.660;7.082;2023-06-26T02:48:51;24.40;99.90
5086;DHT22;4715;51.660;7.082;2023-06-26T02:51:14;24.20;99.90
5086;DHT22;4715;51.660;7.082;2023-06-26T02:53:36;24.20;99.90
5086;DHT22;4715;51.660;7.082;2023-06-26T02:55:58;24.20;99.90
5086;DHT22;4715;51.660;7.082;2023-06-26T02:58:19;24.20;99.90
5086;DHT22;4715;51.660;7.082;2023-06-26T03:00:41;24.20;99.90
5086;DHT22;4715;51.660;7.082;2023-06-26T03:03:03;24.10;99.90
5086;DHT22;4715;51.660;7.082;2023-06-26T03:05:25;24.10;99.90
5086;DHT22;4715;51.660;7.082;2023-06-26T03:07:48;24.10;99.90
5086;DHT22;4715;51.660;7.082;2023-06-26T03:10:10;24.10;99.90
5086;DHT22;4715;51.660;7.082;2023-06-26T03:12:32;24.10;99.90
5086;DHT22;4715;51.660;7.082;2023-06-26T03:14:54;24.10;99.90
5086;DHT22;4715;51.660;7.082;2023-06-26T03:17:15;24.10;99.90
5086;DHT22;4715;51.660;7.082;2023-06-26T03:19:37;24.00;99.90
5086;DHT22;4715;51.660;7.082;2023-06-26T03:21:59;24.00;99.90
5086;DHT22;4715;51.660;7.082;2023-06-26T03:24:22;24.00;99.90
5086;DHT22;4715;51.660;7.082;2023-06-26T03:26:44;24.00;99.90
5086;DHT22;4715;51.660;7.082;2023-06-26T03:29:09;23.90;99.90
5086;DHT22;4715;51.660;7.082;2023-06-26T03:31:30;23.90;99.90
5086;DHT22;4715;51.660;7.082;2023-06-26T03:33:55;23.90;99.90
5086;DHT22;4715;51.660;7.082;2023-06-26T03:36:18;23.90;99.90
5086;DHT22;4715;51.660;7.082;2023-06-26T03:38:41;23.90;99.90
5086;DHT22;4715;51.660;7.082;2023-06-26T03:41:05;23.80;99.90
5086;DHT22;4715;51.660;7.082;2023-06-26T03:43:29;23.80;99.90
5086;DHT22;4715;51.660;7.082;2023-06-26T03:45:51;23.80;99.90
5086;DHT22;4715;51.660;7.082;2023-06-26T03:48:13;23.70;99.90
5086;DHT22;4715;51.660;7.082;2023-06-26T03:50:35;23.70;99.90
5086;DHT22;4715;51.660;7.082;2023-06-26T03:53:00;23.60;99.90
5086;DHT22;4715;51.660;7.082;2023-06-26T03:55:23;23.50;99.90
5086;DHT22;4715;51.660;7.082;2023-06-26T03:57:47;23.50;99.90
5086;DHT22;4715;51.660;7.082;2023-06-26T04:00:10;23.40;99.90
5086;DHT22;4715;51.660;7.082;2023-06-26T04:02:35;23.30;99.90
5086;DHT22;4715;51.660;7.082;2023-06-26T04:04:57;23.30;99.90
5086;DHT22;4715;51.660;7.082;2023-06-26T04:07:22;23.30;99.90
5086;DHT22;4715;51.660;7.082;2023-06-26T04:09:45;23.20;99.90
5086;DHT22;4715;51.660;7.082;2023-06-26T04:12:07;23.20;99.90
5086;DHT22;4715;51.660;7.082;2023-06-26T04:14:31;23.20;99.90
5086;DHT22;4715;51.660;7.082;2023-06-26T04:16:53;23.20;99.90
5086;DHT22;4715;51.660;7.082;2023-06-26T04:19:16;23.10;99.90
5086;DHT22;4715;51.660;7.082;2023-06-26T04:21:39;23.10;99.90
5086;DHT22;4715;51.660;7.082;2023-06-26T04:24:01;23.00;99.90
5086;DHT22;4715;51.660;7.082;2023-06-26T04:26:23;23.00;99.90
5086;DHT22;4715;51.660;7.082;2023-06-26T04:28:49;23.00;99.90
5086;DHT22;4715;51.660;7.082;2023-06-26T04:31:14;23.00;99.90
5086;DHT22;4715;51.660;7.082;2023-06-26T04:33:36;22.90;99.90
5086;DHT22;4715;51.660;7.082;2023-06-26T04:36:00;22.90;99.90
5086;DHT22;4715;51.660;7.082;2023-06-26T04:38:34;22.90;99.90
5086;DHT22;4715;51.660;7.082;2023-06-26T04:40:56;22.80;99.90
5086;DHT22;4715;51.660;7.082;2023-06-26T04:43:18;22.70;99.90
5086;DHT22;4715;51.660;7.082;2023-06-26T04:45:40;22.70;99.90
5086;DHT22;4715;51.660;7.082;2023-06-26T04:48:04;22.70;99.90
5086;DHT22;4715;51.660;7.082;2023-06-26T04:50:26;22.60;99.90
5086;DHT22;4715;51.660;7.082;2023-06-26T04:52:49;22.60;99.90
5086;DHT22;4715;51.660;7.082;2023-06-26T04:55:11;22.50;99.90
5086;DHT22;4715;51.660;7.082;2023-06-26T04:57:35;22.50;99.90
5086;DHT22;4715;51.660;7.082;2023-06-26T04:59:57;22.40;99.90
5086;DHT22;4715;51.660;7.082;2023-06-26T05:02:19;22.40;99.90
5086;DHT22;4715;51.660;7.082;2023-06-26T05:04:42;22.40;99.90
5086;DHT22;4715;51.660;7.082;2023-06-26T05:07:04;22.40;99.90
5086;DHT22;4715;51.660;7.082;2023-06-26T05:09:26;22.40;99.90
5086;DHT22;4715;51.660;7.082;2023-06-26T05:11:47;22.40;99.90
5086;DHT22;4715;51.660;7.082;2023-06-26T05:14:09;22.40;99.90
5086;DHT22;4715;51.660;7.082;2023-06-26T05:16:31;22.40;99.90
5086;DHT22;4715;51.660;7.082;2023-06-26T05:18:53;22.40;99.90
5086;DHT22;4715;51.660;7.082;2023-06-26T05:21:17;22.40;99.90
5086;DHT22;4715;51.660;7.082;2023-06-26T05:23:39;22.40;99.90
5086;DHT22;4715;51.660;7.082;2023-06-26T05:26:02;22.30;99.90
5086;DHT22;4715;51.660;7.082;2023-06-26T05:28:24;22.30;99.90
5086;DHT22;4715;51.660;7.082;2023-06-26T05:30:48;22.40;99.90
5086;DHT22;4715;51.660;7.082;2023-06-26T05:33:11;22.50;99.90
5086;DHT22;4715;51.660;7.082;2023-06-26T05:35:34;22.50;99.90
5086;DHT22;4715;51.660;7.082;2023-06-26T05:37:59;22.50;99.90
5086;DHT22;4715;51.660;7.082;2023-06-26T05:40:22;22.50;99.90
5086;DHT22;4715;51.660;7.082;2023-06-26T05:42:44;22.50;99.90
5086;DHT22;4715;51.660;7.082;2023-06-26T05:45:07;22.50;99.90
5086;DHT22;4715;51.660;7.082;2023-06-26T05:47:29;22.50;99.90
5086;DHT22;4715;51.660;7.082;2023-06-26T05:49:51;22.50;99.90
5086;DHT22;4715;51.660;7.082;2023-06-26T05:52:14;22.60;99.90
5086;DHT22;4715;51.660;7.082;2023-06-26T05:54:39;22.60;99.90
5086;DHT22;4715;51.660;7.082;2023-06-26T05:57:01;22.60;99.90
5086;DHT22;4715;51.660;7.082;2023-06-26T05:59:24;22.60;99.90
5086;DHT22;4715;51.660;7.082;2023-06-26T06:01:47;22.60;99.90
5086;DHT22;4715;51.660;7.082;2023-06-26T06:04:08;22.50;99.90
5086;DHT22;4715;51.660;7.082;2023-06-26T06:06:30;22.50;99.90
5086;DHT22;4715;51.660;7.082;2023-06-26T06:08:52;22.60;99.90
5086;DHT22;4715;51.660;7.082;2023-06-26T06:11:15;22.60;99.90
5086;DHT22;4715;51.660;7.082;2023-06-26T06:13:37;22.60;99.90
5086;DHT22;4715;51.660;7.082;2023-06-26T06:15:59;22.70;99.90
5086;DHT22;4715;51.660;7.082;2023-06-26T06:18:23;22.70;99.90
5086;DHT22;4715;51.660;7.082;2023-06-26T06:20:45;22.80;99.90
5086;DHT22;4715;51.660;7.082;2023-06-26T06:23:07;22.80;99.90
5086;DHT22;4715;51.660;7.082;2023-06-26T06:25:29;22.80;99.90
5086;DHT22;4715;51.660;7.082;2023-06-26T06:27:54;22.70;99.90
5086;DHT22;4715;51.660;7.082;2023-06-26T06:30:17;22.70;99.90
5086;DHT22;4715;51.660;7.082;2023-06-26T06:32:39;22.70;99.90
5086;DHT22;4715;51.660;7.082;2023-06-26T06:35:01;22.60;99.90
5086;DHT22;4715;51.660;7.082;2023-06-26T06:37:31;22.50;99.90
5086;DHT22;4715;51.660;7.082;2023-06-26T06:39:53;22.50;99.90
5086;DHT22;4715;51.660;7.082;2023-06-26T06:42:15;22.50;99.90
5086;DHT22;4715;51.660;7.082;2023-06-26T06:44:39;22.40;99.90
5086;DHT22;4715;51.660;7.082;2023-06-26T06:47:01;22.40;99.90
5086;DHT22;4715;51.660;7.082;2023-06-26T06:49:23;22.40;99.90
5086;DHT22;4715;51.660;7.082;2023-06-26T06:51:45;22.40;99.90
5086;DHT22;4715;51.660;7.082;2023-06-26T06:54:07;22.40;99.90
5086;DHT22;4715;51.660;7.082;2023-06-26T06:56:39;22.40;99.90
5086;DHT22;4715;51.660;7.082;2023-06-26T06:59:02;22.40;99.90
5086;DHT22;4715;51.660;7.082;2023-06-26T07:01:26;22.40;99.90
5086;DHT22;4715;51.660;7.082;2023-06-26T07:03:48;22.40;99.90
5086;DHT22;4715;51.660;7.082;2023-06-26T07:06:10;22.50;99.90
5086;DHT22;4715;51.660;7.082;2023-06-26T07:08:31;22.50;99.90
5086;DHT22;4715;51.660;7.082;2023-06-26T07:10:53;22.60;99.90
5086;DHT22;4715;51.660;7.082;2023-06-26T07:13:17;22.70;99.90
5086;DHT22;4715;51.660;7.082;2023-06-26T07:15:39;22.80;99.90
5086;DHT22;4715;51.660;7.082;2023-06-26T07:18:02;22.80;99.90
5086;DHT22;4715;51.660;7.082;2023-06-26T07:20:25;22.90;99.90
5086;DHT22;4715;51.660;7.082;2023-06-26T07:22:49;23.00;99.90
5086;DHT22;4715;51.660;7.082;2023-06-26T07:25:13;23.00;99.90
5086;DHT22;4715;51.660;7.082;2023-06-26T07:27:36;23.00;99.90
5086;DHT22;4715;51.660;7.082;2023-06-26T07:30:00;23.10;99.90
5086;DHT22;4715;51.660;7.082;2023-06-26T07:32:24;23.10;99.90
5086;DHT22;4715;51.660;7.082;2023-06-26T07:34:50;23.20;99.90
5086;DHT22;4715;51.660;7.082;2023-06-26T07:37:12;23.20;99.90
5086;DHT22;4715;51.660;7.082;2023-06-26T07:39:34;23.30;99.90
5086;DHT22;4715;51.660;7.082;2023-06-26T07:41:56;23.50;99.90
5086;DHT22;4715;51.660;7.082;2023-06-26T07:44:41;23.50;99.90
5086;DHT22;4715;51.660;7.082;2023-06-26T07:47:04;23.50;99.90
5086;DHT22;4715;51.660;7.082;2023-06-26T07:49:26;23.50;99.90
5086;DHT22;4715;51.660;7.082;2023-06-26T07:51:50;23.50;99.90
5086;DHT22;4715;51.660;7.082;2023-06-26T07:54:12;23.50;99.90
5086;DHT22;4715;51.660;7.082;2023-06-26T07:56:35;23.50;99.90
5086;DHT22;4715;51.660;7.082;2023-06-26T07:59:13;23.50;99.90
5086;DHT22;4715;51.660;7.082;2023-06-26T08:01:35;23.60;99.90
5086;DHT22;4715;51.660;7.082;2023-06-26T08:03:57;23.70;99.90
5086;DHT22;4715;51.660;7.082;2023-06-26T08:06:19;23.80;99.90
5086;DHT22;4715;51.660;7.082;2023-06-26T08:08:44;24.00;99.90
5086;DHT22;4715;51.660;7.082;2023-06-26T08:11:06;24.10;99.90
5086;DHT22;4715;51.660;7.082;2023-06-26T08:13:29;24.10;99.90
5086;DHT22;4715;51.660;7.082;2023-06-26T08:15:52;24.10;99.90
5086;DHT22;4715;51.660;7.082;2023-06-26T08:18:14;24.10;99.90
5086;DHT22;4715;51.660;7.082;2023-06-26T08:20:36;23.90;99.90
5086;DHT22;4715;51.660;7.082;2023-06-26T08:22:58;23.90;99.90
5086;DHT22;4715;51.660;7.082;2023-06-26T08:25:22;23.80;99.90
5086;DHT22;4715;51.660;7.082;2023-06-26T08:27:45;23.80;99.90
5086;DHT22;4715;51.660;7.082;2023-06-26T08:30:07;23.80;99.90
5086;DHT22;4715;51.660;7.082;2023-06-26T08:32:29;23.90;99.90
5086;DHT22;4715;51.660;7.082;2023-06-26T08:34:51;23.90;99.90
5086;DHT22;4715;51.660;7.082;2023-06-26T08:37:13;23.90;99.90
5086;DHT22;4715;51.660;7.082;2023-06-26T08:39:35;23.90;99.90
5086;DHT22;4715;51.660;7.082;2023-06-26T08:41:58;23.90;99.90
5086;DHT22;4715;51.660;7.082;2023-06-26T08:44:20;23.90;99.90
5086;DHT22;4715;51.660;7.082;2023-06-26T08:46:45;24.00;99.90
5086;DHT22;4715;51.660;7.082;2023-06-26T08:49:14;24.10;99.90
5086;DHT22;4715;51.660;7.082;2023-06-26T08:51:45;24.20;99.90
5086;DHT22;4715;51.660;7.082;2023-06-26T08:54:12;24.10;99.90
5086;DHT22;4715;51.660;7.082;2023-06-26T08:56:41;24.10;99.90
5086;DHT22;4715;51.660;7.082;2023-06-26T08:59:06;24.00;99.90
5086;DHT22;4715;51.660;7.082;2023-06-26T09:01:31;23.90;99.90
5086;DHT22;4715;51.660;7.082;2023-06-26T09:03:53;24.00;99.90
5086;DHT22;4715;51.660;7.082;2023-06-26T09:06:27;24.10;99.90
5086;DHT22;4715;51.660;7.082;2023-06-26T09:08:49;24.20;99.90
5086;DHT22;4715;51.660;7.082;2023-06-26T09:11:11;24.20;99.90
5086;DHT22;4715;51.660;7.082;2023-06-26T09:13:33;24.20;99.90
5086;DHT22;4715;51.660;7.082;2023-06-26T09:15:58;24.20;99.90
5086;DHT22;4715;51.660;7.082;2023-06-26T09:18:21;24.10;99.90
5086;DHT22;4715;51.660;7.082;2023-06-26T09:20:45;24.00;99.90
5086;DHT22;4715;51.660;7.082;2023-06-26T09:23:08;23.90;99.90
5086;DHT22;4715;51.660;7.082;2023-06-26T09:25:30;24.00;99.90
5086;DHT22;4715;51.660;7.082;2023-06-26T09:27:52;24.10;99.90
5086;DHT22;4715;51.660;7.082;2023-06-26T09:30:17;24.20;99.90
5086;DHT22;4715;51.660;7.082;2023-06-26T09:32:41;24.50;99.90
5086;DHT22;4715;51.660;7.082;2023-06-26T09:35:05;24.70;99.90
5086;DHT22;4715;51.660;7.082;2023-06-26T09:37:27;24.90;99.90
5086;DHT22;4715;51.660;7.082;2023-06-26T09:39:54;24.90;99.90
5086;DHT22;4715;51.660;7.082;2023-06-26T09:42:18;24.90;99.90
5086;DHT22;4715;51.660;7.082;2023-06-26T09:44:43;24.90;99.90
5086;DHT22;4715;51.660;7.082;2023-06-26T09:47:08;24.80;99.90
5086;DHT22;4715;51.660;7.082;2023-06-26T09:49:31;24.80;99.90
5086;DHT22;4715;51.660;7.082;2023-06-26T09:51:53;24.60;99.90
5086;DHT22;4715;51.660;7.082;2023-06-26T09:54:17;24.60;99.90
5086;DHT22;4715;51.660;7.082;2023-06-26T09:56:42;24.60;99.90
5086;DHT22;4715;51.660;7.082;2023-06-26T09:59:09;24.60;99.90
5086;DHT22;4715;51.660;7.082;2023-06-26T10:01:32;24.80;99.90
5086;DHT22;4715;51.660;7.082;2023-06-26T10:03:55;25.00;99.90
5086;DHT22;4715;51.660;7.082;2023-06-26T10:06:22;24.90;99.90
5086;DHT22;4715;51.660;7.082;2023-06-26T10:08:46;24.80;99.90
5086;DHT22;4715;51.660;7.082;2023-06-26T10:11:14;24.70;99.90
5086;DHT22;4715;51.660;7.082;2023-06-26T10:13:43;24.80;99.90
5086;DHT22;4715;51.660;7.082;2023-06-26T10:16:07;25.00;99.90
5086;DHT22;4715;51.660;7.082;2023-06-26T10:18:32;25.20;99.90
5086;DHT22;4715;51.660;7.082;2023-06-26T10:20:57;25.40;99.90
5086;DHT22;4715;51.660;7.082;2023-06-26T10:23:23;25.60;99.90
5086;DHT22;4715;51.660;7.082;2023-06-26T10:25:48;25.60;99.90
5086;DHT22;4715;51.660;7.082;2023-06-26T10:28:14;25.60;99.90
5086;DHT22;4715;51.660;7.082;2023-06-26T10:30:39;25.70;99.90
5086;DHT22;4715;51.660;7.082;2023-06-26T10:33:02;25.70;99.90
5086;DHT22;4715;51.660;7.082;2023-06-26T10:35:42;25.90;99.90
5086;DHT22;4715;51.660;7.082;2023-06-26T10:38:07;26.10;99.90
5086;DHT22;4715;51.660;7.082;2023-06-26T10:40:40;26.20;99.90
5086;DHT22;4715;51.660;7.082;2023-06-26T10:43:06;26.40;99.90
5086;DHT22;4715;51.660;7.082;2023-06-26T10:45:29;26.50;99.90
5086;DHT22;4715;51.660;7.082;2023-06-26T10:47:52;26.40;99.90
5086;DHT22;4715;51.660;7.082;2023-06-26T10:50:18;26.20;99.90
5086;DHT22;4715;51.660;7.082;2023-06-26T10:52:42;26.00;99.90
5086;DHT22;4715;51.660;7.082;2023-06-26T10:55:04;25.80;99.90
5086;DHT22;4715;51.660;7.082;2023-06-26T10:57:29;25.70;99.90
5086;DHT22;4715;51.660;7.082;2023-06-26T11:00:10;25.40;99.90
5086;DHT22;4715;51.660;7.082;2023-06-26T11:02:47;25.00;99.90
5086;DHT22;4715;51.660;7.082;2023-06-26T11:05:09;24.80;99.90
5086;DHT22;4715;51.660;7.082;2023-06-26T11:07:32;24.70;99.90
5086;DHT22;4715;51.660;7.082;2023-06-26T11:09:57;24.70;99.90
5086;DHT22;4715;51.660;7.082;2023-06-26T11:15:13;24.80;99.90
5086;DHT22;4715;51.660;7.082;2023-06-26T11:17:38;25.10;99.90
5086;DHT22;4715;51.660;7.082;2023-06-26T11:20:01;25.20;99.90
5086;DHT22;4715;51.660;7.082;2023-06-26T11:22:25;25.20;99.90
5086;DHT22;4715;51.660;7.082;2023-06-26T11:24:49;25.10;99.90
5086;DHT22;4715;51.660;7.082;2023-06-26T11:27:12;25.00;99.90
5086;DHT22;4715;51.660;7.082;2023-06-26T11:29:34;24.90;99.90
5086;DHT22;4715;51.660;7.082;2023-06-26T11:32:10;24.80;99.90
5086;DHT22;4715;51.660;7.082;2023-06-26T11:34:35;24.90;99.90
5086;DHT22;4715;51.660;7.082;2023-06-26T11:36:58;25.20;99.90
5086;DHT22;4715;51.660;7.082;2023-06-26T11:39:23;25.30;99.90
5086;DHT22;4715;51.660;7.082;2023-06-26T11:41:45;25.50;99.90
5086;DHT22;4715;51.660;7.082;2023-06-26T11:44:09;25.70;99.90
5086;DHT22;4715;51.660;7.082;2023-06-26T11:46:31;26.00;99.90
5086;DHT22;4715;51.660;7.082;2023-06-26T11:48:55;26.20;99.90
5086;DHT22;4715;51.660;7.082;2023-06-26T11:51:17;26.30;99.90
5086;DHT22;4715;51.660;7.082;2023-06-26T11:53:40;26.40;99.90
5086;DHT22;4715;51.660;7.082;2023-06-26T11:56:08;26.50;99.90
5086;DHT22;4715;51.660;7.082;2023-06-26T11:58:30;26.50;99.90
5086;DHT22;4715;51.660;7.082;2023-06-26T12:00:51;26.40;99.90
5086;DHT22;4715;51.660;7.082;2023-06-26T12:03:13;26.30;99.90
5086;DHT22;4715;51.660;7.082;2023-06-26T12:05:37;26.30;99.90
5086;DHT22;4715;51.660;7.082;2023-06-26T12:07:59;26.50;99.90
5086;DHT22;4715;51.660;7.082;2023-06-26T12:10:24;26.40;98.10
5086;DHT22;4715;51.660;7.082;2023-06-26T12:12:48;26.30;96.50
5086;DHT22;4715;51.660;7.082;2023-06-26T12:15:15;26.20;95.30
5086;DHT22;4715;51.660;7.082;2023-06-26T12:17:38;26.30;95.00
5086;DHT22;4715;51.660;7.082;2023-06-26T12:20:00;26.40;94.40
5086;DHT22;4715;51.660;7.082;2023-06-26T12:22:33;26.40;93.20
5086;DHT22;4715;51.660;7.082;2023-06-26T12:24:58;26.40;93.00
5086;DHT22;4715;51.660;7.082;2023-06-26T12:27:19;26.30;92.40
5086;DHT22;4715;51.660;7.082;2023-06-26T12:29:49;26.20;92.00
5086;DHT22;4715;51.660;7.082;2023-06-26T12:32:12;26.10;92.40
5086;DHT22;4715;51.660;7.082;2023-06-26T12:34:37;26.00;92.50
5086;DHT22;4715;51.660;7.082;2023-06-26T12:37:01;26.20;92.80
5086;DHT22;4715;51.660;7.082;2023-06-26T12:39:25;26.20;92.80
5086;DHT22;4715;51.660;7.082;2023-06-26T12:41:48;26.40;93.40
5086;DHT22;4715;51.660;7.082;2023-06-26T12:44:17;26.30;94.40
5086;DHT22;4715;51.660;7.082;2023-06-26T12:46:40;26.30;95.00
5086;DHT22;4715;51.660;7.082;2023-06-26T12:49:02;26.10;95.30
5086;DHT22;4715;51.660;7.082;2023-06-26T12:51:24;26.00;95.50
5086;DHT22;4715;51.660;7.082;2023-06-26T12:53:47;25.90;95.80
5086;DHT22;4715;51.660;7.082;2023-06-26T12:56:11;25.90;96.00
5086;DHT22;4715;51.660;7.082;2023-06-26T12:58:32;26.00;96.30
5086;DHT22;4715;51.660;7.082;2023-06-26T13:00:54;26.10;96.70
5086;DHT22;4715;51.660;7.082;2023-06-26T13:03:18;26.20;96.40
5086;DHT22;4715;51.660;7.082;2023-06-26T13:05:41;26.20;96.60
5086;DHT22;4715;51.660;7.082;2023-06-26T13:08:03;26.10;96.70
5086;DHT22;4715;51.660;7.082;2023-06-26T13:10:25;26.10;96.90
5086;DHT22;4715;51.660;7.082;2023-06-26T13:12:52;26.00;96.90
5086;DHT22;4715;51.660;7.082;2023-06-26T13:15:15;25.80;96.80
5086;DHT22;4715;51.660;7.082;2023-06-26T13:17:36;25.60;97.10
5086;DHT22;4715;51.660;7.082;2023-06-26T13:19:58;25.60;97.20
5086;DHT22;4715;51.660;7.082;2023-06-26T13:22:20;25.60;97.10
5086;DHT22;4715;51.660;7.082;2023-06-26T13:24:42;25.60;96.90
5086;DHT22;4715;51.660;7.082;2023-06-26T13:27:06;25.60;97.10
5086;DHT22;4715;51.660;7.082;2023-06-26T13:29:31;25.60;97.10
5086;DHT22;4715;51.660;7.082;2023-06-26T13:31:54;25.70;96.40
5086;DHT22;4715;51.660;7.082;2023-06-26T13:34:21;25.60;96.10
5086;DHT22;4715;51.660;7.082;2023-06-26T13:36:44;25.60;96.00
5086;DHT22;4715;51.660;7.082;2023-06-26T13:39:06;25.70;96.40
5086;DHT22;4715;51.660;7.082;2023-06-26T13:41:28;25.80;96.20
5086;DHT22;4715;51.660;7.082;2023-06-26T13:43:50;25.90;96.10
5086;DHT22;4715;51.660;7.082;2023-06-26T13:46:15;25.90;96.00
5086;DHT22;4715;51.660;7.082;2023-06-26T13:48:37;25.80;95.40
5086;DHT22;4715;51.660;7.082;2023-06-26T13:50:59;25.60;95.30
5086;DHT22;4715;51.660;7.082;2023-06-26T13:53:23;25.60;95.40
5086;DHT22;4715;51.660;7.082;2023-06-26T13:55:45;25.70;95.10
5086;DHT22;4715;51.660;7.082;2023-06-26T13:58:09;25.60;95.10
5086;DHT22;4715;51.660;7.082;2023-06-26T14:00:32;25.40;95.10
5086;DHT22;4715;51.660;7.082;2023-06-26T14:02:55;25.50;95.40
5086;DHT22;4715;51.660;7.082;2023-06-26T14:05:19;25.50;95.20
5086;DHT22;4715;51.660;7.082;2023-06-26T14:07:41;25.60;95.10
5086;DHT22;4715;51.660;7.082;2023-06-26T14:10:05;25.70;95.00
5086;DHT22;4715;51.660;7.082;2023-06-26T14:12:27;25.80;94.60
5086;DHT22;4715;51.660;7.082;2023-06-26T14:14:49;25.90;94.70
5086;DHT22;4715;51.660;7.082;2023-06-26T14:17:12;25.90;94.00
5086;DHT22;4715;51.660;7.082;2023-06-26T14:19:41;25.70;93.70
5086;DHT22;4715;51.660;7.082;2023-06-26T14:22:03;25.60;93.80
5086;DHT22;4715;51.660;7.082;2023-06-26T14:24:25;25.50;93.80
5086;DHT22;4715;51.660;7.082;2023-06-26T14:26:56;25.40;93.40
5086;DHT22;4715;51.660;7.082;2023-06-26T14:29:18;25.30;93.00
5086;DHT22;4715;51.660;7.082;2023-06-26T14:31:43;25.30;92.90
5086;DHT22;4715;51.660;7.082;2023-06-26T14:34:05;25.30;92.80
5086;DHT22;4715;51.660;7.082;2023-06-26T14:36:28;25.30;92.80
5086;DHT22;4715;51.660;7.082;2023-06-26T14:38:51;25.20;93.00
5086;DHT22;4715;51.660;7.082;2023-06-26T14:41:13;25.20;93.20
5086;DHT22;4715;51.660;7.082;2023-06-26T14:43:36;25.20;92.80
5086;DHT22;4715;51.660;7.082;2023-06-26T14:45:58;25.20;91.90
5086;DHT22;4715;51.660;7.082;2023-06-26T14:48:20;25.00;91.20
5086;DHT22;4715;51.660;7.082;2023-06-26T14:50:43;24.90;91.30
5086;DHT22;4715;51.660;7.082;2023-06-26T14:53:06;24.80;91.60
5086;DHT22;4715;51.660;7.082;2023-06-26T14:55:28;24.80;91.80
5086;DHT22;4715;51.660;7.082;2023-06-26T14:57:50;24.90;92.10
5086;DHT22;4715;51.660;7.082;2023-06-26T15:00:13;25.00;92.50
5086;DHT22;4715;51.660;7.082;2023-06-26T15:02:38;25.00;92.50
5086;DHT22;4715;51.660;7.082;2023-06-26T15:05:00;24.90;92.60
5086;DHT22;4715;51.660;7.082;2023-06-26T15:07:22;24.90;92.50
5086;DHT22;4715;51.660;7.082;2023-06-26T15:09:47;24.80;92.40
5086;DHT22;4715;51.660;7.082;2023-06-26T15:12:09;24.80;92.30
5086;DHT22;4715;51.660;7.082;2023-06-26T15:14:32;24.80;92.50
5086;DHT22;4715;51.660;7.082;2023-06-26T15:16:55;24.70;92.60
5086;DHT22;4715;51.660;7.082;2023-06-26T15:19:18;24.70;92.80
5086;DHT22;4715;51.660;7.082;2023-06-26T15:21:43;24.70;92.90
5086;DHT22;4715;51.660;7.082;2023-06-26T15:24:08;24.60;92.90
5086;DHT22;4715;51.660;7.082;2023-06-26T15:26:32;24.60;92.80
5086;DHT22;4715;51.660;7.082;2023-06-26T15:28:54;24.70;92.80
5086;DHT22;4715;51.660;7.082;2023-06-26T15:31:24;24.80;92.90
5086;DHT22;4715;51.660;7.082;2023-06-26T15:33:46;25.00;92.90
5086;DHT22;4715;51.660;7.082;2023-06-26T15:36:10;24.90;92.50
5086;DHT22;4715;51.660;7.082;2023-06-26T15:38:32;24.90;92.40
5086;DHT22;4715;51.660;7.082;2023-06-26T15:40:54;24.80;92.30